createdAt,value
2018-05-27T00:00:38.195Z,7.06
2018-05-27T00:01:38.137Z,7.06
2018-05-27T00:02:38.137Z,7.43
2018-05-27T00:03:38.089Z,6.96
2018-05-27T00:04:38.623Z,6.87
2018-05-27T00:05:38.002Z,6.29
2018-05-27T00:06:38.026Z,6.29
2018-05-27T00:07:37.939Z,5.91
2018-05-27T00:08:37.910Z,6.38
2018-05-27T00:09:37.892Z,6.29
2018-05-27T00:10:37.872Z,6.20
2018-05-27T00:11:37.821Z,5.91
2018-05-27T00:12:37.765Z,5.72
2018-05-27T00:13:37.741Z,5.34
2018-05-27T00:14:37.691Z,5.15
2018-05-27T00:15:37.667Z,4.48
2018-05-27T00:16:37.636Z,4.00
2018-05-27T00:17:37.576Z,4.19
2018-05-27T00:18:37.563Z,4.10
2018-05-27T00:19:37.513Z,3.91
2018-05-27T00:20:37.472Z,4.00
2018-05-27T00:21:37.482Z,4.77
2018-05-27T00:22:37.406Z,4.48
2018-05-27T00:23:37.391Z,4.67
2018-05-27T00:24:37.342Z,4.58
2018-05-27T00:25:37.314Z,4.38
2018-05-27T00:26:37.264Z,3.81
2018-05-27T00:27:37.230Z,3.91
2018-05-27T00:28:37.201Z,3.63
2018-05-27T00:29:37.158Z,4.00
2018-05-27T00:30:37.123Z,4.10
2018-05-27T00:31:37.076Z,4.38
2018-05-27T00:32:37.055Z,4.58
2018-05-27T00:33:37.029Z,4.48
2018-05-27T00:34:37.015Z,4.48
2018-05-27T00:35:36.977Z,4.19
2018-05-27T00:36:36.928Z,3.81
2018-05-27T00:37:36.881Z,3.63
2018-05-27T00:38:36.871Z,4.00
2018-05-27T00:39:36.823Z,4.67
2018-05-27T00:40:36.817Z,4.67
2018-05-27T00:41:36.751Z,4.67
2018-05-27T00:42:36.703Z,4.58
2018-05-27T00:43:36.657Z,4.10
2018-05-27T00:44:36.617Z,3.81
2018-05-27T00:45:36.585Z,4.00
2018-05-27T00:46:36.551Z,3.81
2018-05-27T00:47:36.537Z,4.19
2018-05-27T00:48:36.489Z,4.29
2018-05-27T00:49:36.446Z,4.96
2018-05-27T00:50:36.432Z,4.96
2018-05-27T00:51:36.397Z,4.86
2018-05-27T00:52:36.384Z,5.05
2018-05-27T00:53:36.304Z,5.05
2018-05-27T00:54:36.261Z,4.86
2018-05-27T00:55:36.326Z,5.05
2018-05-27T00:56:36.219Z,4.86
2018-05-27T00:57:36.197Z,5.24
2018-05-27T00:58:36.132Z,5.33
2018-05-27T00:59:36.099Z,5.33
2018-05-27T01:00:36.064Z,5.33
2018-05-27T01:01:36.024Z,4.86
2018-05-27T01:02:35.977Z,5.15
2018-05-27T01:03:35.955Z,5.24
2018-05-27T01:04:35.939Z,5.34
2018-05-27T01:05:35.923Z,5.43
2018-05-27T01:06:35.853Z,5.43
2018-05-27T01:07:35.820Z,5.91
2018-05-27T01:08:35.769Z,5.72
2018-05-27T01:09:35.782Z,5.62
2018-05-27T01:10:35.700Z,5.05
2018-05-27T01:11:35.676Z,4.96
2018-05-27T01:12:35.620Z,5.05
2018-05-27T01:13:35.601Z,4.58
2018-05-27T01:14:35.553Z,4.67
2018-05-27T01:15:35.552Z,4.67
2018-05-27T01:16:35.507Z,5.05
2018-05-27T01:17:35.437Z,5.43
2018-05-27T01:18:35.428Z,5.62
2018-05-27T01:19:35.373Z,5.91
2018-05-27T01:20:35.335Z,5.72
2018-05-27T01:21:35.297Z,6.00
2018-05-27T01:22:35.290Z,6.29
2018-05-27T01:23:35.363Z,6.48
2018-05-27T01:24:35.187Z,5.91
2018-05-27T01:25:35.169Z,6.20
2018-05-27T01:26:35.119Z,5.91
2018-05-27T01:27:35.100Z,6.20
2018-05-27T01:28:35.060Z,6.38
2018-05-27T01:29:35.007Z,6.38
2018-05-27T01:30:34.967Z,6.57
2018-05-27T01:31:34.939Z,6.67
2018-05-27T01:32:34.905Z,7.05
2018-05-27T01:33:34.916Z,6.57
2018-05-27T01:34:34.856Z,6.67
2018-05-27T01:35:34.806Z,6.29
2018-05-27T01:36:34.753Z,6.29
2018-05-27T01:37:34.726Z,6.00
2018-05-27T01:38:34.682Z,5.72
2018-05-27T01:39:34.685Z,5.81
2018-05-27T01:40:34.619Z,6.20
2018-05-27T01:41:34.580Z,5.91
2018-05-27T01:42:34.576Z,6.20
2018-05-27T01:43:34.524Z,5.91
2018-05-27T01:44:34.505Z,6.29
2018-05-27T01:45:34.441Z,6.67
2018-05-27T01:46:34.404Z,6.38
2018-05-27T01:47:34.414Z,6.57
2018-05-27T01:48:34.345Z,6.10
2018-05-27T01:49:34.288Z,6.20
2018-05-27T01:50:34.263Z,6.38
2018-05-27T01:51:34.228Z,6.67
2018-05-27T01:52:34.197Z,6.57
2018-05-27T01:53:34.160Z,6.38
2018-05-27T01:54:34.120Z,6.20
2018-05-27T01:55:34.080Z,6.76
2018-05-27T01:56:34.044Z,6.96
2018-05-27T01:57:34.043Z,6.76
2018-05-27T01:58:33.972Z,6.76
2018-05-27T01:59:33.931Z,6.76
2018-05-27T02:00:33.893Z,6.57
2018-05-27T02:01:33.877Z,6.67
2018-05-27T02:02:33.815Z,6.38
2018-05-27T02:03:33.792Z,6.67
2018-05-27T02:04:33.781Z,6.48
2018-05-27T02:05:33.745Z,6.48
2018-05-27T02:06:33.677Z,6.29
2018-05-27T02:07:33.643Z,6.77
2018-05-27T02:08:33.611Z,6.77
2018-05-27T02:09:33.599Z,6.58
2018-05-27T02:10:33.528Z,6.20
2018-05-27T02:11:33.503Z,6.87
2018-05-27T02:12:33.463Z,6.87
2018-05-27T02:13:33.432Z,6.77
2018-05-27T02:14:33.384Z,6.77
2018-05-27T02:15:33.393Z,6.96
2018-05-27T02:16:33.361Z,6.87
2018-05-27T02:17:33.285Z,6.67
2018-05-27T02:18:33.280Z,6.67
2018-05-27T02:19:33.259Z,7.06
2018-05-27T02:20:33.200Z,7.06
2018-05-27T02:21:33.136Z,6.67
2018-05-27T02:22:33.096Z,6.67
2018-05-27T02:23:33.094Z,7.06
2018-05-27T02:24:33.032Z,7.15
2018-05-27T02:25:32.990Z,6.87
2018-05-27T02:26:32.968Z,6.87
2018-05-27T02:27:32.920Z,7.06
2018-05-27T02:28:32.908Z,7.15
2018-05-27T02:29:32.856Z,6.87
2018-05-27T02:30:32.827Z,6.96
2018-05-27T02:31:32.807Z,7.06
2018-05-27T02:32:32.743Z,6.96
2018-05-27T02:33:32.728Z,6.96
2018-05-27T02:34:32.695Z,7.06
2018-05-27T02:35:32.640Z,7.06
2018-05-27T02:36:32.609Z,7.06
2018-05-27T02:37:32.582Z,7.34
2018-05-27T02:38:32.526Z,7.15
2018-05-27T02:39:32.495Z,7.15
2018-05-27T02:40:32.462Z,7.15
2018-05-27T02:41:32.438Z,7.06
2018-05-27T02:42:32.395Z,7.34
2018-05-27T02:43:32.354Z,7.63
2018-05-27T02:44:32.337Z,7.43
2018-05-27T02:45:32.291Z,7.43
2018-05-27T02:46:32.256Z,7.63
2018-05-27T02:47:32.231Z,7.63
2018-05-27T02:48:32.193Z,7.24
2018-05-27T02:49:32.148Z,7.63
2018-05-27T02:50:32.119Z,7.91
2018-05-27T02:51:32.057Z,7.53
2018-05-27T02:52:32.027Z,7.63
2018-05-27T02:53:32.059Z,7.53
2018-05-27T02:54:32.000Z,7.53
2018-05-27T02:55:31.927Z,7.63
2018-05-27T02:56:31.885Z,7.91
2018-05-27T02:57:31.892Z,7.82
2018-05-27T02:58:31.836Z,8.01
2018-05-27T02:59:31.775Z,8.11
2018-05-27T03:00:31.763Z,8.01
2018-05-27T03:01:31.701Z,8.11
2018-05-27T03:02:31.696Z,8.01
2018-05-27T03:03:31.627Z,7.91
2018-05-27T03:04:31.608Z,7.91
2018-05-27T03:05:31.566Z,7.82
2018-05-27T03:06:31.534Z,7.34
2018-05-27T03:07:31.492Z,7.06
2018-05-27T03:08:31.463Z,7.06
2018-05-27T03:09:31.475Z,6.96
2018-05-27T03:10:31.392Z,7.44
2018-05-27T03:11:31.389Z,7.43
2018-05-27T03:12:31.309Z,7.63
2018-05-27T03:13:31.290Z,7.34
2018-05-27T03:14:31.239Z,8.01
2018-05-27T03:15:31.225Z,7.82
2018-05-27T03:16:31.176Z,7.72
2018-05-27T03:17:31.167Z,7.82
2018-05-27T03:18:31.112Z,7.15
2018-05-27T03:19:31.070Z,7.53
2018-05-27T03:20:31.060Z,7.43
2018-05-27T03:21:31.006Z,7.34
2018-05-27T03:22:30.993Z,7.43
2018-05-27T03:23:30.929Z,7.34
2018-05-27T03:24:30.902Z,7.63
2018-05-27T03:25:30.854Z,7.34
2018-05-27T03:26:30.833Z,7.91
2018-05-27T03:27:30.784Z,8.01
2018-05-27T03:28:30.769Z,7.43
2018-05-27T03:29:30.733Z,7.82
2018-05-27T03:30:30.674Z,7.63
2018-05-27T03:31:30.679Z,7.15
2018-05-27T03:32:30.605Z,7.06
2018-05-27T03:33:30.595Z,7.06
2018-05-27T03:34:30.547Z,6.96
2018-05-27T03:35:30.516Z,6.96
2018-05-27T03:36:30.508Z,6.29
2018-05-27T03:37:30.418Z,6.58
2018-05-27T03:38:30.409Z,6.39
2018-05-27T03:39:30.385Z,6.10
2018-05-27T03:40:30.327Z,6.20
2018-05-27T03:41:30.299Z,5.82
2018-05-27T03:42:30.258Z,5.91
2018-05-27T03:43:30.244Z,6.01
2018-05-27T03:44:30.179Z,6.01
2018-05-27T03:45:30.174Z,6.10
2018-05-27T03:46:30.124Z,6.01
2018-05-27T03:47:30.073Z,6.30
2018-05-27T03:48:30.077Z,5.63
2018-05-27T03:49:30.014Z,5.73
2018-05-27T03:50:29.980Z,5.63
2018-05-27T03:51:29.948Z,5.63
2018-05-27T03:52:29.912Z,5.63
2018-05-27T03:53:29.907Z,5.91
2018-05-27T03:54:29.833Z,6.11
2018-05-27T03:55:29.801Z,6.11
2018-05-27T03:56:29.754Z,6.20
2018-05-27T03:57:29.743Z,6.30
2018-05-27T03:58:29.696Z,6.49
2018-05-27T03:59:29.655Z,6.77
2018-05-27T04:00:29.633Z,6.87
2018-05-27T04:01:29.603Z,6.11
2018-05-27T04:02:29.570Z,6.77
2018-05-27T04:03:29.519Z,6.87
2018-05-27T04:04:29.482Z,6.49
2018-05-27T04:05:29.453Z,6.49
2018-05-27T04:06:29.426Z,6.87
2018-05-27T04:07:29.377Z,6.78
2018-05-27T04:08:29.350Z,6.87
2018-05-27T04:09:29.315Z,6.40
2018-05-27T04:10:29.263Z,6.59
2018-05-27T04:11:29.255Z,6.11
2018-05-27T04:12:29.260Z,5.63
2018-05-27T04:13:29.207Z,5.54
2018-05-27T04:14:29.191Z,5.35
2018-05-27T04:15:29.105Z,4.96
2018-05-27T04:16:29.065Z,4.77
2018-05-27T04:17:29.061Z,4.96
2018-05-27T04:18:29.034Z,4.39
2018-05-27T04:19:28.965Z,3.91
2018-05-27T04:20:28.945Z,4.96
2018-05-27T04:21:28.894Z,5.35
2018-05-27T04:22:28.880Z,5.63
2018-05-27T04:23:28.827Z,6.21
2018-05-27T04:24:28.821Z,5.92
2018-05-27T04:25:28.759Z,6.11
2018-05-27T04:26:28.762Z,6.01
2018-05-27T04:27:28.702Z,6.59
2018-05-27T04:28:28.677Z,6.68
2018-05-27T04:29:28.621Z,6.02
2018-05-27T04:30:28.587Z,5.83
2018-05-27T04:31:28.545Z,5.83
2018-05-27T04:32:28.528Z,6.12
2018-05-27T04:33:28.474Z,5.44
2018-05-27T04:34:28.465Z,5.54
2018-05-27T04:35:28.410Z,5.06
2018-05-27T04:36:28.385Z,4.49
2018-05-27T04:37:28.358Z,4.68
2018-05-27T04:38:28.327Z,4.39
2018-05-27T04:39:28.284Z,4.21
2018-05-27T04:40:28.248Z,3.82
2018-05-27T04:41:28.239Z,3.63
2018-05-27T04:42:28.199Z,3.34
2018-05-27T04:43:28.220Z,3.25
2018-05-27T04:44:28.104Z,3.72
2018-05-27T04:45:28.145Z,3.44
2018-05-27T04:46:28.031Z,4.49
2018-05-27T04:47:28.010Z,4.97
2018-05-27T04:48:27.963Z,4.68
2018-05-27T04:49:27.945Z,4.68
2018-05-27T04:50:27.929Z,3.25
2018-05-27T04:51:27.885Z,2.48
2018-05-27T04:52:27.846Z,1.81
2018-05-27T04:53:27.836Z,1.72
2018-05-27T04:54:27.830Z,1.43
2018-05-27T04:55:27.788Z,1.43
2018-05-27T04:56:27.725Z,2.39
2018-05-27T04:57:27.684Z,3.06
2018-05-27T04:58:27.635Z,3.34
2018-05-27T04:59:27.626Z,2.96
2018-05-27T05:00:27.593Z,2.96
2018-05-27T05:01:27.553Z,3.92
2018-05-27T05:02:27.560Z,4.49
2018-05-27T05:03:27.497Z,4.87
2018-05-27T05:04:27.419Z,4.39
2018-05-27T05:05:27.395Z,4.49
2018-05-27T05:06:27.349Z,5.16
2018-05-27T05:07:27.323Z,5.35
2018-05-27T05:08:27.293Z,6.98
2018-05-27T05:09:27.289Z,9.56
2018-05-27T05:10:27.235Z,10.71
2018-05-27T05:11:27.191Z,11.66
2018-05-27T05:12:27.163Z,14.34
2018-05-27T05:13:27.151Z,14.81
2018-05-27T05:14:27.101Z,13.87
2018-05-27T05:15:27.062Z,13.48
2018-05-27T05:16:27.030Z,13.87
2018-05-27T05:17:27.027Z,15.20
2018-05-27T05:18:26.949Z,22.00
2018-05-27T05:19:26.904Z,23.72
2018-05-27T05:20:26.905Z,22.96
2018-05-27T05:21:26.849Z,21.23
2018-05-27T05:22:26.836Z,19.60
2018-05-27T05:23:26.795Z,17.90
2018-05-27T05:24:26.755Z,16.94
2018-05-27T05:25:26.733Z,18.27
2018-05-27T05:26:26.712Z,18.85
2018-05-27T05:27:26.683Z,20.09
2018-05-27T05:28:26.643Z,21.05
2018-05-27T05:29:26.620Z,20.86
2018-05-27T05:30:26.557Z,19.81
2018-05-27T05:31:26.560Z,18.47
2018-05-27T05:32:26.489Z,17.99
2018-05-27T05:33:26.464Z,18.37
2018-05-27T05:34:26.422Z,21.44
2018-05-27T05:35:26.396Z,27.08
2018-05-27T05:36:26.406Z,34.26
2018-05-27T05:37:26.332Z,35.60
2018-05-27T05:38:26.309Z,35.50
2018-05-27T05:39:26.259Z,26.89
2018-05-27T05:40:26.219Z,28.33
2018-05-27T05:41:26.211Z,33.69
2018-05-27T05:42:26.165Z,32.82
2018-05-27T05:43:26.123Z,31.77
2018-05-27T05:44:26.138Z,37.61
2018-05-27T05:45:26.055Z,39.43
2018-05-27T05:46:26.049Z,44.02
2018-05-27T05:47:26.001Z,38.95
2018-05-27T05:48:25.991Z,34.18
2018-05-27T05:49:25.970Z,34.47
2018-05-27T05:50:25.908Z,40.50
2018-05-27T05:51:25.869Z,52.37
2018-05-27T05:52:25.846Z,47.20
2018-05-27T05:53:25.797Z,48.33
2018-05-27T05:54:25.781Z,49.57
2018-05-27T05:55:25.753Z,51.61
2018-05-27T05:56:25.721Z,52.75
2018-05-27T05:57:25.689Z,51.63
2018-05-27T05:58:25.670Z,67.15
2018-05-27T05:59:25.600Z,68.87
2018-05-27T06:00:25.580Z,67.05
2018-05-27T06:01:26.238Z,72.71
2018-05-27T06:02:25.520Z,70.31
2018-05-27T06:03:25.488Z,84.20
2018-05-27T06:04:25.468Z,75.58
2018-05-27T06:05:25.415Z,76.54
2018-05-27T06:06:25.375Z,70.41
2018-05-27T06:07:25.359Z,67.05
2018-05-27T06:08:25.316Z,61.50
2018-05-27T06:09:25.292Z,73.86
2018-05-27T06:10:25.257Z,76.44
2018-05-27T06:11:25.268Z,72.94
2018-05-27T06:12:25.205Z,76.48
2018-05-27T06:13:25.157Z,84.15
2018-05-27T06:14:25.133Z,85.25
2018-05-27T06:15:25.129Z,96.85
2018-05-27T06:16:25.081Z,99.99
2018-05-27T06:17:25.046Z,96.99
2018-05-27T06:18:24.996Z,99.99
2018-05-27T06:19:24.963Z,99.99
2018-05-27T06:20:24.958Z,99.99
2018-05-27T06:21:25.001Z,99.99
2018-05-27T06:22:24.876Z,99.99
2018-05-27T06:23:24.844Z,99.99
2018-05-27T06:24:24.816Z,99.99
2018-05-27T06:25:24.833Z,99.99
2018-05-27T06:26:24.762Z,99.99
2018-05-27T06:27:24.714Z,99.99
2018-05-27T06:28:24.704Z,99.99
2018-05-27T06:29:24.668Z,99.99
2018-05-27T06:30:24.656Z,99.99
2018-05-27T06:31:24.610Z,99.99
2018-05-27T06:32:24.572Z,99.99
2018-05-27T06:33:24.558Z,99.99
2018-05-27T06:34:24.565Z,99.99
2018-05-27T06:35:24.476Z,99.99
2018-05-27T06:36:24.452Z,99.99
2018-05-27T06:37:24.451Z,99.99
2018-05-27T06:38:24.392Z,99.99
2018-05-27T06:39:24.362Z,99.99
2018-05-27T06:40:24.376Z,99.99
2018-05-27T06:41:24.322Z,99.99
2018-05-27T06:42:24.294Z,99.99
2018-05-27T06:43:24.260Z,99.99
2018-05-27T06:44:24.232Z,99.99
2018-05-27T06:45:24.204Z,99.99
2018-05-27T06:46:24.178Z,99.99
2018-05-27T06:47:24.134Z,99.99
2018-05-27T06:48:24.116Z,99.99
2018-05-27T06:49:24.107Z,99.99
2018-05-27T06:50:24.053Z,99.99
2018-05-27T06:51:24.019Z,97.33
2018-05-27T06:52:24.017Z,95.40
2018-05-27T06:53:23.974Z,97.77
2018-05-27T06:54:23.937Z,94.96
2018-05-27T06:55:23.922Z,88.15
2018-05-27T06:56:23.873Z,87.50
2018-05-27T06:57:23.855Z,77.45
2018-05-27T06:58:23.850Z,73.48
2018-05-27T06:59:23.786Z,73.96
2018-05-27T07:00:23.752Z,71.70
2018-05-27T07:01:23.751Z,70.15
2018-05-27T07:02:23.700Z,68.73
2018-05-27T07:03:23.696Z,69.83
2018-05-27T07:04:23.687Z,73.60
2018-05-27T07:05:23.636Z,78.83
2018-05-27T07:06:23.603Z,85.01
2018-05-27T07:07:23.571Z,89.17
2018-05-27T07:08:23.556Z,90.03
2018-05-27T07:09:23.521Z,84.24
2018-05-27T07:10:23.512Z,83.66
2018-05-27T07:11:23.475Z,81.53
2018-05-27T07:12:23.442Z,79.70
2018-05-27T07:13:23.423Z,80.08
2018-05-27T07:14:23.413Z,86.61
2018-05-27T07:15:23.374Z,98.30
2018-05-27T07:16:23.349Z,95.64
2018-05-27T07:17:23.330Z,98.68
2018-05-27T07:18:23.295Z,99.99
2018-05-27T07:19:23.299Z,98.78
2018-05-27T07:20:23.292Z,99.99
2018-05-27T07:21:23.253Z,99.99
2018-05-27T07:22:23.207Z,99.99
2018-05-27T07:23:23.175Z,90.57
2018-05-27T07:24:23.182Z,91.87
2018-05-27T07:25:23.141Z,86.55
2018-05-27T07:26:23.116Z,83.86
2018-05-27T07:27:23.070Z,80.62
2018-05-27T07:28:23.084Z,76.64
2018-05-27T07:29:23.040Z,76.68
2018-05-27T07:30:23.021Z,74.27
2018-05-27T07:31:22.977Z,71.03
2018-05-27T07:32:23.001Z,69.29
2018-05-27T07:33:22.951Z,69.96
2018-05-27T07:34:22.928Z,71.84
2018-05-27T07:35:22.897Z,76.62
2018-05-27T07:36:22.868Z,71.90
2018-05-27T07:37:22.843Z,72.55
2018-05-27T07:38:22.828Z,71.48
2018-05-27T07:39:22.829Z,70.49
2018-05-27T07:40:22.771Z,67.50
2018-05-27T07:41:22.775Z,68.06
2018-05-27T07:42:22.740Z,66.76
2018-05-27T07:43:22.714Z,68.54
2018-05-27T07:44:22.695Z,66.99
2018-05-27T07:45:22.697Z,65.17
2018-05-27T07:46:22.664Z,67.28
2018-05-27T07:47:22.631Z,63.97
2018-05-27T07:48:22.616Z,68.87
2018-05-27T07:49:22.588Z,67.02
2018-05-27T07:50:22.571Z,67.90
2018-05-27T07:51:22.551Z,68.77
2018-05-27T07:52:22.508Z,64.17
2018-05-27T07:53:22.500Z,67.08
2018-05-27T07:54:22.505Z,66.21
2018-05-27T07:55:22.488Z,70.57
2018-05-27T07:56:22.454Z,72.51
2018-05-27T07:57:22.427Z,72.39
2018-05-27T07:58:22.484Z,68.99
2018-05-27T07:59:22.376Z,67.83
2018-05-27T08:00:22.369Z,66.92
2018-05-27T08:01:22.345Z,67.57
2018-05-27T08:02:22.344Z,64.46
2018-05-27T08:03:22.388Z,62.84
2018-05-27T08:04:22.281Z,63.32
2018-05-27T08:05:22.275Z,59.35
2018-05-27T08:06:22.270Z,57.75
2018-05-27T08:07:22.224Z,56.47
2018-05-27T08:08:22.225Z,56.20
2018-05-27T08:09:22.204Z,52.59
2018-05-27T08:10:22.167Z,55.71
2018-05-27T08:11:22.178Z,57.75
2018-05-27T08:12:22.165Z,62.56
2018-05-27T08:13:22.126Z,60.69
2018-05-27T08:14:22.104Z,62.74
2018-05-27T08:15:22.077Z,63.68
2018-05-27T08:16:22.066Z,60.66
2018-05-27T08:17:22.045Z,63.10
2018-05-27T08:18:22.024Z,62.54
2018-05-27T08:19:22.011Z,63.93
2018-05-27T08:20:21.995Z,59.48
2018-05-27T08:21:21.975Z,58.81
2018-05-27T08:22:21.985Z,62.29
2018-05-27T08:23:21.947Z,63.65
2018-05-27T08:24:21.939Z,66.31
2018-05-27T08:25:21.910Z,64.26
2018-05-27T08:26:21.904Z,60.44
2018-05-27T08:27:21.884Z,64.36
2018-05-27T08:28:21.872Z,60.36
2018-05-27T08:29:21.833Z,64.42
2018-05-27T08:30:21.824Z,60.30
2018-05-27T08:31:21.806Z,60.16
2018-05-27T08:32:21.797Z,62.21
2018-05-27T08:33:21.774Z,61.61
2018-05-27T08:34:21.762Z,66.08
2018-05-27T08:35:21.728Z,70.51
2018-05-27T08:36:21.728Z,67.86
2018-05-27T08:37:21.708Z,65.53
2018-05-27T08:38:21.688Z,66.44
2018-05-27T08:39:21.679Z,67.80
2018-05-27T08:40:21.662Z,67.83
2018-05-27T08:41:21.630Z,64.23
2018-05-27T08:42:21.644Z,67.67
2018-05-27T08:43:21.663Z,70.10
2018-05-27T08:44:21.577Z,67.99
2018-05-27T08:45:21.558Z,63.81
2018-05-27T08:46:21.553Z,65.72
2018-05-27T08:47:21.516Z,64.13
2018-05-27T08:48:21.524Z,65.20
2018-05-27T08:49:21.492Z,63.78
2018-05-27T09:06:06.963Z,63.48
2018-05-27T09:06:45.200Z,65.08
2018-05-27T09:08:38.447Z,70.72
2018-05-27T09:09:38.237Z,69.26
2018-05-27T09:11:32.023Z,66.34
2018-05-27T09:12:31.869Z,69.32
2018-05-27T09:13:31.769Z,69.16
2018-05-27T09:14:31.769Z,70.07
2018-05-27T09:15:31.750Z,66.05
2018-05-27T09:16:31.732Z,63.78
2018-05-27T09:17:31.744Z,66.76
2018-05-27T09:18:31.730Z,63.81
2018-05-27T09:19:31.692Z,62.31
2018-05-27T09:20:31.662Z,64.26
2018-05-27T09:21:31.678Z,62.18
2018-05-27T09:22:31.619Z,63.35
2018-05-27T09:23:31.649Z,63.15
2018-05-27T09:24:31.585Z,64.03
2018-05-27T09:25:31.581Z,62.76
2018-05-27T09:26:31.674Z,63.57
2018-05-27T09:27:31.530Z,61.59
2018-05-27T09:28:31.540Z,58.73
2018-05-27T09:29:31.486Z,59.35
2018-05-27T09:30:31.546Z,60.85
2018-05-27T09:31:31.446Z,60.62
2018-05-27T09:32:31.449Z,62.83
2018-05-27T09:33:31.421Z,63.54
2018-05-27T09:34:31.406Z,59.48
2018-05-27T09:35:31.374Z,59.97
2018-05-27T09:36:31.373Z,57.99
2018-05-27T09:37:31.339Z,60.27
2018-05-27T09:38:31.330Z,62.08
2018-05-27T09:39:31.308Z,63.24
2018-05-27T09:40:31.296Z,59.64
2018-05-27T09:41:31.267Z,61.43
2018-05-27T09:42:31.250Z,62.08
2018-05-27T09:43:31.260Z,62.24
2018-05-27T09:44:31.227Z,60.97
2018-05-27T09:45:31.260Z,60.23
2018-05-27T09:46:31.173Z,60.94
2018-05-27T09:47:31.163Z,64.00
2018-05-27T09:48:31.157Z,60.91
2018-05-27T09:49:31.134Z,60.88
2018-05-27T09:50:31.117Z,59.67
2018-05-27T09:51:31.125Z,62.32
2018-05-27T09:52:31.074Z,63.68
2018-05-27T09:53:31.054Z,63.54
2018-05-27T09:54:31.079Z,61.99
2018-05-27T09:55:31.021Z,65.75
2018-05-27T09:56:30.999Z,66.31
2018-05-27T09:57:31.015Z,61.76
2018-05-27T09:58:31.047Z,63.34
2018-05-27T09:59:30.953Z,62.34
2018-05-27T10:00:30.952Z,65.04
2018-05-27T10:01:30.911Z,61.11
2018-05-27T10:02:30.893Z,61.99
2018-05-27T10:03:30.883Z,62.76
2018-05-27T10:04:30.862Z,63.19
2018-05-27T10:05:30.842Z,64.32
2018-05-27T10:06:30.835Z,63.57
2018-05-27T10:07:30.807Z,62.15
2018-05-27T10:08:30.799Z,60.62
2018-05-27T10:09:30.821Z,61.66
2018-05-27T10:10:30.748Z,61.43
2018-05-27T10:11:30.746Z,61.35
2018-05-27T10:12:30.719Z,61.76
2018-05-27T10:13:30.699Z,57.98
2018-05-27T10:14:30.696Z,63.57
2018-05-27T10:15:30.660Z,58.16
2018-05-27T10:16:30.647Z,59.57
2018-05-27T10:17:30.639Z,59.86
2018-05-27T10:18:30.608Z,58.33
2018-05-27T10:19:30.596Z,59.90
2018-05-27T10:20:30.597Z,60.13
2018-05-27T10:21:30.564Z,60.55
2018-05-27T10:22:30.543Z,57.59
2018-05-27T10:23:30.523Z,55.18
2018-05-27T10:24:30.508Z,56.47
2018-05-27T10:25:30.492Z,56.18
2018-05-27T10:26:30.467Z,56.36
2018-05-27T10:27:30.449Z,59.74
2018-05-27T10:28:30.439Z,63.31
2018-05-27T10:29:30.437Z,59.02
2018-05-27T10:30:30.396Z,60.22
2018-05-27T10:31:30.378Z,61.85
2018-05-27T10:32:30.360Z,60.39
2018-05-27T10:33:30.328Z,60.61
2018-05-27T10:34:30.332Z,61.66
2018-05-27T10:35:30.299Z,60.91
2018-05-27T10:36:30.276Z,63.41
2018-05-27T10:37:30.262Z,63.38
2018-05-27T10:38:30.271Z,64.59
2018-05-27T10:39:30.225Z,61.66
2018-05-27T10:40:30.229Z,63.97
2018-05-27T10:41:30.183Z,66.89
2018-05-27T10:42:30.171Z,65.50
2018-05-27T10:43:30.228Z,71.82
2018-05-27T10:44:30.160Z,68.68
2018-05-27T10:45:30.114Z,65.78
2018-05-27T10:46:30.114Z,66.86
2018-05-27T10:47:30.101Z,62.34
2018-05-27T10:48:30.068Z,65.98
2018-05-27T10:49:30.036Z,64.55
2018-05-27T10:50:30.032Z,62.08
2018-05-27T10:51:30.017Z,65.40
2018-05-27T10:52:30.000Z,63.26
2018-05-27T10:53:29.970Z,65.43
2018-05-27T10:54:29.966Z,65.50
2018-05-27T10:55:29.951Z,66.89
2018-05-27T10:56:29.919Z,65.33
2018-05-27T10:57:29.914Z,68.93
2018-05-27T10:58:29.906Z,67.63
2018-05-27T10:59:29.885Z,67.50
2018-05-27T11:00:29.856Z,67.50
2018-05-27T11:01:29.831Z,68.26
2018-05-27T11:02:29.801Z,66.66
2018-05-27T11:03:29.806Z,62.86
2018-05-27T11:04:29.778Z,64.39
2018-05-27T11:05:29.738Z,63.28
2018-05-27T11:06:29.719Z,63.54
2018-05-27T11:07:29.715Z,65.85
2018-05-27T11:08:29.729Z,64.19
2018-05-27T11:09:29.690Z,61.46
2018-05-27T11:10:29.663Z,59.94
2018-05-27T11:11:29.661Z,65.46
2018-05-27T11:12:29.618Z,63.61
2018-05-27T11:13:29.606Z,71.28
2018-05-27T11:14:29.573Z,68.49
2018-05-27T11:15:29.556Z,63.65
2018-05-27T11:16:29.539Z,68.58
2018-05-27T11:17:29.537Z,63.57
2018-05-27T11:18:29.515Z,63.48
2018-05-27T11:19:29.499Z,64.45
2018-05-27T11:20:29.467Z,67.47
2018-05-27T11:21:29.443Z,66.73
2018-05-27T11:22:29.440Z,69.29
2018-05-27T11:23:29.422Z,64.07
2018-05-27T11:24:29.392Z,67.28
2018-05-27T11:25:29.383Z,66.86
2018-05-27T11:26:29.348Z,65.46
2018-05-27T11:27:29.344Z,65.11
2018-05-27T11:28:29.303Z,66.63
2018-05-27T11:29:29.291Z,67.90
2018-05-27T11:30:29.279Z,65.11
2018-05-27T11:31:29.244Z,63.97
2018-05-27T11:32:29.249Z,68.84
2018-05-27T11:33:29.237Z,65.69
2018-05-27T11:34:29.195Z,66.79
2018-05-27T11:35:29.202Z,68.02
2018-05-27T11:36:29.161Z,65.46
2018-05-27T11:37:29.135Z,67.21
2018-05-27T11:38:29.112Z,66.17
2018-05-27T11:39:29.106Z,66.44
2018-05-27T11:40:29.075Z,66.83
2018-05-27T11:41:29.080Z,66.31
2018-05-27T11:42:29.052Z,69.42
2018-05-27T11:43:29.027Z,72.47
2018-05-27T11:44:29.013Z,73.05
2018-05-27T11:45:29.012Z,68.19
2018-05-27T11:46:28.964Z,67.15
2018-05-27T11:47:28.967Z,74.69
2018-05-27T11:48:28.933Z,80.77
2018-05-27T11:49:28.904Z,73.88
2018-05-27T11:50:28.902Z,71.22
2018-05-27T11:51:28.874Z,72.00
2018-05-27T11:52:28.880Z,74.62
2018-05-27T11:53:28.842Z,73.84
2018-05-27T11:54:28.829Z,71.90
2018-05-27T11:55:28.820Z,77.43
2018-05-27T11:56:28.777Z,75.78
2018-05-27T11:57:28.747Z,75.10
2018-05-27T11:58:28.724Z,74.95
2018-05-27T11:59:28.730Z,72.17
2018-05-27T12:00:28.680Z,69.93
2018-05-27T12:01:28.666Z,70.75
2018-05-27T12:02:28.633Z,72.11
2018-05-27T12:03:28.619Z,72.91
2018-05-27T12:04:28.600Z,72.71
2018-05-27T12:05:28.574Z,72.13
2018-05-27T12:06:28.548Z,73.88
2018-05-27T12:07:28.537Z,73.26
2018-05-27T12:08:28.506Z,76.52
2018-05-27T12:09:28.619Z,80.85
2018-05-27T12:10:28.479Z,81.23
2018-05-27T12:11:28.477Z,83.56
2018-05-27T12:12:28.436Z,78.29
2018-05-27T12:13:28.402Z,81.10
2018-05-27T12:14:28.375Z,82.35
2018-05-27T12:15:28.356Z,87.06
2018-05-27T12:16:28.340Z,82.03
2018-05-27T12:17:28.316Z,95.39
2018-05-27T12:18:28.317Z,99.99
2018-05-27T12:19:28.285Z,89.78
2018-05-27T12:20:28.252Z,90.84
2018-05-27T12:21:28.247Z,92.49
2018-05-27T12:22:28.203Z,93.26
2018-05-27T12:23:28.211Z,89.88
2018-05-27T12:24:28.181Z,88.29
2018-05-27T12:25:28.132Z,90.41
2018-05-27T12:26:28.119Z,92.06
2018-05-27T12:27:28.101Z,89.45
2018-05-27T12:28:28.096Z,88.96
2018-05-27T12:29:28.078Z,93.22
2018-05-27T12:30:28.081Z,96.80
2018-05-27T12:31:28.016Z,96.51
2018-05-27T12:32:28.055Z,94.38
2018-05-27T12:33:27.960Z,99.99
2018-05-27T12:34:27.946Z,99.99
2018-05-27T12:35:27.917Z,99.99
2018-05-27T12:36:27.881Z,99.99
2018-05-27T12:37:27.879Z,99.99
2018-05-27T12:38:27.837Z,99.99
2018-05-27T12:39:27.830Z,99.99
2018-05-27T12:40:27.774Z,99.99
2018-05-27T12:41:27.762Z,99.99
2018-05-27T12:42:27.748Z,99.99
2018-05-27T12:43:27.724Z,99.99
2018-05-27T12:44:27.694Z,99.99
2018-05-27T12:45:27.659Z,99.99
2018-05-27T12:46:27.622Z,99.99
2018-05-27T12:47:27.610Z,99.99
2018-05-27T12:48:27.589Z,99.99
2018-05-27T12:49:27.572Z,99.99
2018-05-27T12:50:27.533Z,99.99
2018-05-27T12:51:27.508Z,99.99
2018-05-27T12:52:27.491Z,99.99
2018-05-27T12:53:27.445Z,99.99
2018-05-27T12:54:27.435Z,99.99
2018-05-27T12:55:27.455Z,99.99
2018-05-27T12:56:27.401Z,99.99
2018-05-27T12:57:27.373Z,99.99
2018-05-27T12:58:27.324Z,99.99
2018-05-27T12:59:27.304Z,99.99
2018-05-27T13:00:27.300Z,99.99
2018-05-27T13:01:27.263Z,99.99
2018-05-27T13:02:27.201Z,99.99
2018-05-27T13:03:27.185Z,99.99
2018-05-27T13:04:27.180Z,99.99
2018-05-27T13:05:27.152Z,99.99
2018-05-27T13:06:27.094Z,99.99
2018-05-27T13:07:27.077Z,99.99
2018-05-27T13:08:27.049Z,95.45
2018-05-27T13:09:27.044Z,96.89
2018-05-27T13:10:27.010Z,92.27
2018-05-27T13:11:26.990Z,80.81
2018-05-27T13:12:26.931Z,70.02
2018-05-27T13:13:26.947Z,65.85
2018-05-27T13:14:26.896Z,67.39
2018-05-27T13:15:26.865Z,71.91
2018-05-27T13:16:26.960Z,58.82
2018-05-27T13:17:26.806Z,57.37
2018-05-27T13:18:26.770Z,56.32
2018-05-27T13:19:26.745Z,69.99